Time;durP1;ratioP1;P1;durP2;ratioP2;P2;SDS_P1;SDS_P2;PMS_P1;PMS_P2;Temp;Humidity;BMP_temperature;BMP_pressure;BME280_temperature;BME280_humidity;BME280_pressure;Samples;Min_cycle;Max_cycle;Signal;HPM_P1;HPM_P2
2023/05/30 00:02:11;;;;;;;;;;;9.80;99.90;;;-148.53;100.00;63986.66;5053372;28;20384;-75
2023/05/30 00:04:39;;;;;;;;;;;9.80;99.90;;;-148.53;100.00;63986.66;5065730;28;19924;-77
2023/05/30 00:07:05;;;;;;;;;;;9.80;99.90;;;-148.53;100.00;63986.66;5053236;28;20003;-77
2023/05/30 00:09:31;;;;;;;;;;;9.80;99.90;;;-148.53;100.00;63986.66;5052921;28;20011;-77
2023/05/30 00:11:57;;;;;;;;;;;9.90;99.90;;;-148.53;100.00;63986.66;5053859;28;19924;-76
2023/05/30 00:14:23;;;;;;;;;;;9.90;99.90;;;-148.53;100.00;63986.66;5053126;28;19916;-78
2023/05/30 00:16:49;;;;;;;;;;;9.90;99.90;;;-148.53;100.00;63986.66;5053501;28;19916;-77
2023/05/30 00:19:15;;;;;;;;;;;9.80;99.90;;;-148.53;100.00;63986.66;5053053;28;20387;-76
2023/05/30 00:21:41;;;;;;;;;;;9.80;99.90;;;-148.53;100.00;63986.66;5058321;28;20380;-77
2023/05/30 00:24:06;;;;;;;;;;;9.70;99.90;;;-148.53;100.00;63986.66;5056768;28;19924;-77
2023/05/30 00:26:32;;;;;;;;;;;9.60;99.90;;;-148.53;100.00;63986.66;5056789;28;19920;-77
2023/05/30 00:28:58;;;;;;;;;;;9.50;99.90;;;-148.53;100.00;63986.66;5053290;28;19917;-77
2023/05/30 00:31:23;;;;;;;;;;;9.50;99.90;;;-148.53;100.00;63986.66;5052527;28;19967;-77
2023/05/30 00:33:49;;;;;;;;;;;9.30;99.90;;;-148.53;100.00;63986.66;5055643;28;20066;-77
2023/05/30 00:36:16;;;;;;;;;;;9.30;99.90;;;-148.53;100.00;63986.66;5055077;28;19916;-77
2023/05/30 00:38:42;;;;;;;;;;;9.30;99.90;;;-148.53;100.00;63986.66;5071249;28;20321;-77
2023/05/30 00:41:07;;;;;;;;;;;9.40;99.90;;;-148.53;100.00;63986.66;5060622;28;20018;-77
2023/05/30 00:43:33;;;;;;;;;;;9.40;99.90;;;-148.53;100.00;63986.66;5062114;28;19925;-76
2023/05/30 00:46:01;;;;;;;;;;;9.40;99.90;;;-148.53;100.00;63986.66;5061213;28;19927;-77
2023/05/30 00:48:27;;;;;;;;;;;9.40;99.90;;;-148.53;100.00;63986.66;5069226;28;19952;-78
2023/05/30 00:50:53;;;;;;;;;;;9.40;99.90;;;-148.53;100.00;63986.66;5101355;28;19920;-77
2023/05/30 00:53:21;;;;;;;;;;;9.40;99.90;;;-148.53;100.00;63986.66;5064224;28;19916;-77
2023/05/30 00:55:48;;;;;;;;;;;9.40;99.90;;;-148.53;100.00;63986.66;5060056;28;20332;-78
2023/05/30 00:58:15;;;;;;;;;;;9.30;99.90;;;-148.53;100.00;63986.66;5093551;28;20375;-77
2023/05/30 01:00:41;;;;;;;;;;;9.20;99.90;;;-148.53;100.00;63986.66;5060595;28;19920;-76
2023/05/30 01:03:10;;;;;;;;;;;9.20;99.90;;;-148.53;100.00;63986.66;5059650;28;19943;-77
2023/05/30 01:05:36;;;;;;;;;;;9.10;99.90;;;-148.53;100.00;63986.66;5052468;28;19917;-76
2023/05/30 01:08:02;;;;;;;;;;;9.00;99.90;;;-148.53;100.00;63986.66;5084558;28;20023;-74
2023/05/30 01:10:30;;;;;;;;;;;9.00;99.90;;;-148.53;100.00;63986.66;5051065;28;20007;-76
2023/05/30 01:13:20;;;;;;;;;;;9.00;99.90;;;-148.53;100.00;63986.66;5063408;28;19947;-76
2023/05/30 01:15:53;;;;;;;;;;;9.00;99.90;;;-148.53;100.00;63986.66;5052312;28;19970;-78
2023/05/30 01:18:39;;;;;;;;;;;9.00;99.90;;;-148.53;100.00;63986.66;5052101;28;20353;-77
2023/05/30 01:21:10;;;;;;;;;;;9.00;99.90;;;-148.53;100.00;63986.66;5052233;28;19922;-77
2023/05/30 01:24:11;;;;;;;;;;;9.00;99.90;;;-148.53;100.00;63986.66;5052643;28;19924;-77
2023/05/30 01:27:03;;;;;;;;;;;9.00;99.90;;;-148.53;100.00;63986.66;5066092;28;19940;-77
2023/05/30 01:29:30;;;;;;;;;;;8.90;99.90;;;-148.53;100.00;63986.66;5052495;28;19986;-77
2023/05/30 01:31:58;;;;;;;;;;;8.90;99.90;;;-148.53;100.00;63986.66;5054409;28;19916;-77
2023/05/30 01:34:23;;;;;;;;;;;8.90;99.90;;;-148.53;100.00;63986.66;5052229;28;19924;-78
2023/05/30 01:36:50;;;;;;;;;;;8.90;99.90;;;-148.53;100.00;63986.66;5052412;28;19922;-77
2023/05/30 01:39:16;;;;;;;;;;;8.90;99.90;;;-148.53;100.00;63986.66;5083961;28;20039;-77
2023/05/30 01:42:01;;;;;;;;;;;8.90;99.90;;;-148.53;100.00;63986.66;5058915;28;19916;-78
2023/05/30 01:44:37;;;;;;;;;;;8.80;99.90;;;-148.53;100.00;63986.66;5055436;28;19963;-77
2023/05/30 01:47:21;;;;;;;;;;;8.60;99.90;;;-148.53;100.00;63986.66;5062198;28;19913;-77
2023/05/30 01:49:57;;;;;;;;;;;8.50;99.90;;;-148.53;100.00;63986.66;5050889;28;19970;-77
2023/05/30 01:52:29;;;;;;;;;;;8.50;99.90;;;-148.53;100.00;63986.66;5051919;28;19917;-77
2023/05/30 01:55:03;;;;;;;;;;;8.60;99.90;;;-148.53;100.00;63986.66;5089180;28;19912;-77
2023/05/30 01:57:29;;;;;;;;;;;8.60;99.90;;;-148.53;100.00;63986.66;5086952;28;19920;-78
2023/05/30 01:59:57;;;;;;;;;;;8.50;99.90;;;-148.53;100.00;63986.66;5061161;28;20330;-77
2023/05/30 02:02:23;;;;;;;;;;;8.40;99.90;;;-148.53;100.00;63986.66;5056303;28;19917;-77
2023/05/30 02:04:49;;;;;;;;;;;8.40;99.90;;;-148.53;100.00;63986.66;5069688;28;19916;-77
2023/05/30 02:07:15;;;;;;;;;;;8.30;99.90;;;-148.53;100.00;63986.66;5056041;28;20023;-77
2023/05/30 02:09:41;;;;;;;;;;;8.40;99.90;;;-148.53;100.00;63986.66;5057677;28;20007;-77
2023/05/30 02:12:08;;;;;;;;;;;8.20;99.90;;;-148.53;100.00;63986.66;5059001;28;19924;-77
2023/05/30 02:14:33;;;;;;;;;;;8.20;99.90;;;-148.53;100.00;63986.66;5064949;28;19920;-77
2023/05/30 02:16:59;;;;;;;;;;;8.20;99.90;;;-148.53;100.00;63986.66;5059848;28;20083;-77
2023/05/30 02:19:28;;;;;;;;;;;8.20;99.90;;;-148.53;100.00;63986.66;5057664;28;19920;-77
2023/05/30 02:21:53;;;;;;;;;;;8.20;99.90;;;-148.53;100.00;63986.66;5054254;28;20384;-76
2023/05/30 02:24:21;;;;;;;;;;;8.20;99.90;;;-148.53;100.00;63986.66;5063917;28;19925;-77
2023/05/30 02:26:47;;;;;;;;;;;8.10;99.90;;;-148.53;100.00;63986.66;5067549;28;19943;-77
2023/05/30 02:29:12;;;;;;;;;;;8.10;99.90;;;-148.53;100.00;63986.66;5060919;28;20034;-77
2023/05/30 02:31:38;;;;;;;;;;;8.00;99.90;;;-148.53;100.00;63986.66;5058346;28;20367;-77
2023/05/30 02:34:04;;;;;;;;;;;8.00;99.90;;;-148.53;100.00;63986.66;5053489;28;19978;-77
2023/05/30 02:36:30;;;;;;;;;;;7.90;99.90;;;-148.53;100.00;63986.66;5054790;28;19952;-76
2023/05/30 02:38:56;;;;;;;;;;;7.80;99.90;;;-148.53;100.00;63986.66;5054251;28;19955;-77
2023/05/30 02:41:23;;;;;;;;;;;7.80;99.90;;;-148.53;100.00;63986.66;5070320;28;19931;-77
2023/05/30 02:43:49;;;;;;;;;;;7.80;99.90;;;-148.53;100.00;63986.66;5054587;28;19916;-77
2023/05/30 02:46:15;;;;;;;;;;;7.90;99.90;;;-148.53;100.00;63986.66;5053813;28;19913;-77
2023/05/30 02:48:41;;;;;;;;;;;7.90;99.90;;;-148.53;100.00;63986.66;5066577;28;19928;-77
2023/05/30 02:51:06;;;;;;;;;;;7.80;99.90;;;-148.53;100.00;63986.66;5064016;28;19917;-77
2023/05/30 02:53:33;;;;;;;;;;;7.80;99.90;;;-148.53;100.00;63986.66;5068827;28;19927;-76
2023/05/30 02:55:59;;;;;;;;;;;7.80;99.90;;;-148.53;100.00;63986.66;5053702;28;19917;-77
2023/05/30 02:58:44;;;;;;;;;;;7.80;99.90;;;-148.53;100.00;63986.66;5058756;28;19971;-76
2023/05/30 03:01:21;;;;;;;;;;;7.90;99.90;;;-148.53;100.00;63986.66;5086701;28;19920;-76
2023/05/30 03:03:47;;;;;;;;;;;8.00;99.90;;;-148.53;100.00;63986.66;5056739;28;19971;-76
2023/05/30 03:06:35;;;;;;;;;;;8.00;99.90;;;-148.53;100.00;63986.66;5057694;28;19931;-77
2023/05/30 03:09:16;;;;;;;;;;;8.00;99.90;;;-148.53;100.00;63986.66;5086544;28;19924;-76
2023/05/30 03:11:42;;;;;;;;;;;8.00;99.90;;;-148.53;100.00;63986.66;5093353;28;20042;-76
2023/05/30 03:14:08;;;;;;;;;;;8.00;99.90;;;-148.53;100.00;63986.66;5053427;28;20007;-76
2023/05/30 03:16:34;;;;;;;;;;;8.00;99.90;;;-148.53;100.00;63986.66;5052802;28;19960;-76
2023/05/30 03:19:01;;;;;;;;;;;8.10;99.90;;;-148.53;100.00;63986.66;5053213;28;19924;-76
2023/05/30 03:21:28;;;;;;;;;;;8.00;99.90;;;-148.53;100.00;63986.66;5086526;28;20020;-77
2023/05/30 03:23:54;;;;;;;;;;;8.00;99.90;;;-148.53;100.00;63986.66;5052829;28;20007;-76
2023/05/30 03:26:25;;;;;;;;;;;8.10;99.90;;;-148.53;100.00;63986.66;5069277;28;19932;-76
2023/05/30 03:28:50;;;;;;;;;;;8.00;99.90;;;-148.53;100.00;63986.66;5061473;28;19916;-76
2023/05/30 03:31:24;;;;;;;;;;;8.10;99.90;;;-148.53;100.00;63986.66;5057728;28;19927;-78
2023/05/30 03:33:51;;;;;;;;;;;8.10;99.90;;;-148.53;100.00;63986.66;5066002;28;19942;-79
2023/05/30 03:36:18;;;;;;;;;;;8.00;99.90;;;-148.53;100.00;63986.66;5068336;28;19923;-78
2023/05/30 03:38:44;;;;;;;;;;;8.20;99.90;;;-148.53;100.00;63986.66;5067276;28;20355;-78
2023/05/30 03:41:10;;;;;;;;;;;8.20;99.90;;;-148.53;100.00;63986.66;5056096;28;19921;-78
2023/05/30 03:43:36;;;;;;;;;;;8.20;99.90;;;-148.53;100.00;63986.66;5058024;28;19963;-78
2023/05/30 03:46:01;;;;;;;;;;;8.30;99.90;;;-148.53;100.00;63986.66;5057218;28;19923;-78
2023/05/30 03:48:29;;;;;;;;;;;8.40;99.90;;;-148.53;100.00;63986.66;5053558;28;19916;-78
2023/05/30 03:50:55;;;;;;;;;;;8.40;99.90;;;-148.53;100.00;63986.66;5053101;28;19921;-77
2023/05/30 03:53:20;;;;;;;;;;;8.50;99.90;;;-148.53;100.00;63986.66;5067536;28;19935;-78
2023/05/30 03:55:47;;;;;;;;;;;8.50;99.90;;;-148.53;100.00;63986.66;5053529;28;20376;-78
2023/05/30 03:58:12;;;;;;;;;;;8.60;99.90;;;-148.53;100.00;63986.66;5053760;28;19987;-78
2023/05/30 04:00:38;;;;;;;;;;;8.60;99.90;;;-148.53;100.00;63986.66;5035678;28;20041;-78
2023/05/30 04:03:04;;;;;;;;;;;8.70;99.90;;;-148.53;100.00;63986.66;5056457;28;19927;-78
2023/05/30 04:05:29;;;;;;;;;;;8.70;99.90;;;-148.53;100.00;63986.66;5058818;28;19924;-77
2023/05/30 04:07:55;;;;;;;;;;;8.80;99.90;;;-148.53;100.00;63986.66;5080007;28;19920;-77
2023/05/30 04:10:21;;;;;;;;;;;8.80;99.90;;;-148.53;100.00;63986.66;5059057;28;19912;-78
2023/05/30 04:12:48;;;;;;;;;;;8.90;99.90;;;-148.53;100.00;63986.66;5063669;28;19916;-77
2023/05/30 04:15:13;;;;;;;;;;;9.00;99.90;;;-148.53;100.00;63986.66;5057115;28;20003;-77
2023/05/30 04:17:40;;;;;;;;;;;9.00;99.90;;;-148.53;100.00;63986.66;5085029;28;19942;-77
2023/05/30 04:20:09;;;;;;;;;;;9.10;99.90;;;-148.53;100.00;63986.66;5064905;28;19917;-78
2023/05/30 04:22:36;;;;;;;;;;;9.10;99.90;;;-148.53;100.00;63986.66;5060206;28;20414;-78
2023/05/30 04:25:02;;;;;;;;;;;9.20;99.90;;;-148.53;100.00;63986.66;5052991;28;19952;-78
2023/05/30 04:27:28;;;;;;;;;;;9.20;99.90;;;-148.53;100.00;63986.66;5052823;28;19917;-79
2023/05/30 04:29:53;;;;;;;;;;;9.30;99.90;;;-148.53;100.00;63986.66;5064737;28;19927;-79
2023/05/30 04:32:20;;;;;;;;;;;9.30;99.90;;;-148.53;100.00;63986.66;5071006;28;20380;-80
2023/05/30 04:34:46;;;;;;;;;;;9.30;99.90;;;-148.53;100.00;63986.66;5059731;28;20019;-79
2023/05/30 04:37:17;;;;;;;;;;;9.40;99.90;;;-148.53;100.00;63986.66;5070227;28;19923;-79
2023/05/30 04:39:44;;;;;;;;;;;9.40;99.90;;;-148.53;100.00;63986.66;5051702;28;19920;-80
2023/05/30 04:42:10;;;;;;;;;;;9.50;99.90;;;-148.53;100.00;63986.66;5055366;28;19924;-79
2023/05/30 04:44:38;;;;;;;;;;;9.50;99.90;;;-148.53;100.00;63986.66;5052739;28;20601;-80
2023/05/30 04:47:08;;;;;;;;;;;9.50;99.90;;;-148.53;100.00;63986.66;5051352;28;20315;-78
2023/05/30 04:49:34;;;;;;;;;;;9.60;99.90;;;-148.53;100.00;63986.66;5056989;28;20348;-78
2023/05/30 04:52:03;;;;;;;;;;;9.60;99.90;;;-148.53;100.00;63986.66;5054130;28;19912;-77
2023/05/30 04:54:29;;;;;;;;;;;9.60;99.90;;;-148.53;100.00;63986.66;5058176;28;19920;-80
2023/05/30 04:56:55;;;;;;;;;;;9.70;99.90;;;-148.53;100.00;63986.66;5058411;28;19927;-78
2023/05/30 04:59:21;;;;;;;;;;;9.80;99.90;;;-148.53;100.00;63986.66;5054480;28;20364;-79
2023/05/30 05:01:48;;;;;;;;;;;9.90;99.90;;;-148.53;100.00;63986.66;5056251;28;19924;-80
2023/05/30 05:04:14;;;;;;;;;;;9.90;99.90;;;-148.53;100.00;63986.66;5057247;28;19921;-78
2023/05/30 05:06:39;;;;;;;;;;;10.00;99.90;;;-148.53;100.00;63986.66;5057049;28;20368;-79
2023/05/30 05:09:05;;;;;;;;;;;10.00;99.90;;;-148.53;100.00;63986.66;5052122;28;20279;-78
2023/05/30 05:11:31;;;;;;;;;;;10.10;99.90;;;-148.53;100.00;63986.66;5055129;28;19974;-80
2023/05/30 05:13:56;;;;;;;;;;;10.20;99.90;;;-148.53;100.00;63986.66;5060224;28;19955;-76
2023/05/30 05:16:22;;;;;;;;;;;10.30;99.90;;;-148.53;100.00;63986.66;5061263;28;19916;-79
2023/05/30 05:18:47;;;;;;;;;;;10.40;99.90;;;-148.53;100.00;63986.66;5069338;28;19950;-76
2023/05/30 05:21:14;;;;;;;;;;;10.50;99.90;;;-148.53;100.00;63986.66;5070776;28;19999;-77
2023/05/30 05:23:39;;;;;;;;;;;10.50;99.90;;;-148.53;100.00;63986.66;5069436;28;19924;-78
2023/05/30 05:26:05;;;;;;;;;;;10.50;99.90;;;-148.53;100.00;63986.66;5069687;28;20022;-83
2023/05/30 05:28:31;;;;;;;;;;;10.40;99.90;;;-148.53;100.00;63986.66;5072234;28;20494;-77
2023/05/30 05:30:58;;;;;;;;;;;10.40;99.90;;;-148.53;100.00;63986.66;5066539;28;20363;-78
2023/05/30 05:33:24;;;;;;;;;;;10.50;99.90;;;-148.53;100.00;63986.66;5059667;28;19916;-78
2023/05/30 05:35:50;;;;;;;;;;;10.50;99.90;;;-148.53;100.00;63986.66;5068972;28;19924;-78
2023/05/30 05:38:16;;;;;;;;;;;10.50;99.90;;;-148.53;100.00;63986.66;5068478;28;19917;-78
2023/05/30 05:40:42;;;;;;;;;;;10.60;99.90;;;-148.53;100.00;63986.66;5064714;28;19916;-78
2023/05/30 05:43:08;;;;;;;;;;;10.80;99.90;;;-148.53;100.00;63986.66;5058928;28;20360;-78
2023/05/30 05:45:33;;;;;;;;;;;10.80;99.90;;;-148.53;100.00;63986.66;5054620;28;20425;-77
2023/05/30 05:48:00;;;;;;;;;;;10.70;99.90;;;-148.53;100.00;63986.66;5058178;28;20065;-78
2023/05/30 05:50:25;;;;;;;;;;;10.70;99.90;;;-148.53;100.00;63986.66;5062168;28;20011;-82
2023/05/30 05:52:51;;;;;;;;;;;10.80;99.90;;;-148.53;100.00;63986.66;5046618;28;20000;-79
2023/05/30 05:55:17;;;;;;;;;;;10.90;99.90;;;-148.53;100.00;63986.66;5053954;28;19967;-79
2023/05/30 05:57:42;;;;;;;;;;;10.80;99.90;;;-148.53;100.00;63986.66;5057508;28;19916;-81
2023/05/30 06:00:09;;;;;;;;;;;10.80;99.90;;;-148.53;100.00;63986.66;5066953;28;20074;-78
2023/05/30 06:02:38;;;;;;;;;;;11.00;99.90;;;-148.53;100.00;63986.66;5058521;28;19916;-80
2023/05/30 06:05:06;;;;;;;;;;;11.10;99.90;;;-148.53;100.00;63986.66;5055804;28;20316;-81
2023/05/30 06:07:32;;;;;;;;;;;11.20;99.90;;;-148.53;100.00;63986.66;5094492;28;19955;-79
2023/05/30 06:09:58;;;;;;;;;;;11.30;99.90;;;-148.53;100.00;63986.66;5063752;28;19923;-80
2023/05/30 06:12:23;;;;;;;;;;;11.10;99.90;;;-148.53;100.00;63986.66;5099314;28;19921;-80
2023/05/30 06:14:49;;;;;;;;;;;11.20;99.90;;;-148.53;100.00;63986.66;5061492;28;19932;-79
2023/05/30 06:17:15;;;;;;;;;;;11.20;99.90;;;-148.53;100.00;63986.66;5058042;28;19916;-79
2023/05/30 06:19:40;;;;;;;;;;;11.30;99.90;;;-148.53;100.00;63986.66;5055982;28;19917;-80
2023/05/30 06:22:07;;;;;;;;;;;11.30;99.90;;;-148.53;100.00;63986.66;5055222;28;20682;-80
2023/05/30 06:24:33;;;;;;;;;;;11.30;99.90;;;-148.53;100.00;63986.66;5060707;28;19920;-79
2023/05/30 06:26:59;;;;;;;;;;;11.50;99.90;;;-148.53;100.00;63986.66;5059323;28;19917;-81
2023/05/30 06:29:25;;;;;;;;;;;11.50;99.90;;;-148.53;100.00;63986.66;5055148;28;20357;-79
2023/05/30 06:31:50;;;;;;;;;;;11.50;99.90;;;-148.53;100.00;63986.66;5054508;28;19921;-80
2023/05/30 06:34:16;;;;;;;;;;;11.60;99.90;;;-148.53;100.00;63986.66;5056640;28;19921;-80
2023/05/30 06:36:41;;;;;;;;;;;11.90;99.90;;;-148.53;100.00;63986.66;5058493;28;20016;-80
2023/05/30 06:39:14;;;;;;;;;;;11.90;99.90;;;-148.53;100.00;63986.66;5059444;28;19916;-80
2023/05/30 06:41:44;;;;;;;;;;;12.00;99.90;;;-148.53;100.00;63986.66;5054940;28;19923;-80
2023/05/30 06:44:09;;;;;;;;;;;12.00;99.90;;;-148.53;100.00;63986.66;5088472;27;19917;-81
2023/05/30 06:46:35;;;;;;;;;;;12.20;99.90;;;-148.53;100.00;63986.66;5060919;28;20352;-81
2023/05/30 06:49:01;;;;;;;;;;;12.30;99.90;;;-148.53;100.00;63986.66;5069889;28;19928;-83
2023/05/30 06:51:27;;;;;;;;;;;12.30;99.90;;;-148.53;100.00;63986.66;5071386;28;20355;-80
2023/05/30 06:53:55;;;;;;;;;;;12.30;99.90;;;-148.53;100.00;63986.66;5067144;28;19920;-79
2023/05/30 06:56:20;;;;;;;;;;;12.40;99.90;;;-148.53;100.00;63986.66;5066230;28;19916;-80
2023/05/30 06:58:46;;;;;;;;;;;12.50;99.90;;;-148.53;100.00;63986.66;5057854;28;20080;-80
2023/05/30 07:01:12;;;;;;;;;;;12.50;99.90;;;-148.53;100.00;63986.66;5054575;28;19986;-77
2023/05/30 07:03:37;;;;;;;;;;;12.50;99.90;;;-148.53;100.00;63986.66;5058499;28;19978;-79
2023/05/30 07:06:03;;;;;;;;;;;12.50;99.90;;;-148.53;100.00;63986.66;5059567;28;20018;-79
2023/05/30 07:08:29;;;;;;;;;;;12.70;99.90;;;-148.53;100.00;63986.66;5054478;28;19986;-79
2023/05/30 07:10:55;;;;;;;;;;;12.90;99.90;;;-148.53;100.00;63986.66;5053445;28;19975;-79
2023/05/30 07:13:20;;;;;;;;;;;13.00;99.90;;;-148.53;100.00;63986.66;5053417;28;19916;-81
2023/05/30 07:15:47;;;;;;;;;;;13.20;99.90;;;-148.53;100.00;63986.66;5054255;28;19916;-79
2023/05/30 07:18:13;;;;;;;;;;;13.50;99.90;;;-148.53;100.00;63986.66;5054081;28;19916;-80
2023/05/30 07:20:38;;;;;;;;;;;13.70;99.90;;;-148.53;100.00;63986.66;5056476;28;19916;-79
2023/05/30 07:23:04;;;;;;;;;;;13.70;99.90;;;-148.53;100.00;63986.66;5054479;28;19963;-81
2023/05/30 07:25:30;;;;;;;;;;;13.70;99.90;;;-148.53;100.00;63986.66;5059420;28;19924;-79
2023/05/30 07:27:56;;;;;;;;;;;13.70;99.90;;;-148.53;100.00;63986.66;5067718;28;19923;-79
2023/05/30 07:30:21;;;;;;;;;;;13.80;99.90;;;-148.53;100.00;63986.66;5053030;28;19970;-79
2023/05/30 07:32:47;;;;;;;;;;;13.80;99.90;;;-148.53;100.00;63986.66;5067095;28;20026;-79
2023/05/30 07:35:13;;;;;;;;;;;13.90;99.90;;;-148.53;100.00;63986.66;5059551;28;19919;-80
2023/05/30 07:37:39;;;;;;;;;;;13.50;99.90;;;-148.53;100.00;63986.66;5067303;28;19920;-78
2023/05/30 07:40:05;;;;;;;;;;;13.70;99.90;;;-148.53;100.00;63986.66;5067516;28;19944;-79
2023/05/30 07:42:32;;;;;;;;;;;13.80;99.90;;;-148.53;100.00;63986.66;5065290;28;19920;-81
2023/05/30 07:44:57;;;;;;;;;;;14.00;99.90;;;-148.53;100.00;63986.66;5069494;28;20430;-80
2023/05/30 07:47:23;;;;;;;;;;;14.30;99.90;;;-148.53;100.00;63986.66;5068202;28;20012;-80
2023/05/30 07:49:48;;;;;;;;;;;14.30;99.90;;;-148.53;100.00;63986.66;5067645;28;19962;-80
2023/05/30 07:52:15;;;;;;;;;;;14.50;99.90;;;-148.53;100.00;63986.66;5066936;28;20038;-79
2023/05/30 07:54:40;;;;;;;;;;;14.40;99.90;;;-148.53;100.00;63986.66;5058478;28;19977;-82
2023/05/30 07:57:06;;;;;;;;;;;14.60;99.90;;;-148.53;100.00;63986.66;5059390;28;20387;-78
2023/05/30 07:59:32;;;;;;;;;;;14.60;99.90;;;-148.53;100.00;63986.66;5063783;28;20335;-81
2023/05/30 08:01:58;;;;;;;;;;;14.80;99.90;;;-148.53;100.00;63986.66;5061874;28;19973;-79
2023/05/30 08:04:24;;;;;;;;;;;14.60;99.90;;;-148.53;100.00;63986.66;5075434;28;19967;-78
2023/05/30 08:06:49;;;;;;;;;;;14.60;99.90;;;-148.53;100.00;63986.66;5071048;28;19916;-78
2023/05/30 08:09:16;;;;;;;;;;;14.50;99.90;;;-148.53;100.00;63986.66;5105250;27;19924;-77
2023/05/30 08:11:41;;;;;;;;;;;14.80;99.90;;;-148.53;100.00;63986.66;5071294;28;20336;-78
2023/05/30 08:14:07;;;;;;;;;;;15.00;99.90;;;-148.53;100.00;63986.66;5068823;28;19984;-79
2023/05/30 08:16:33;;;;;;;;;;;14.70;99.90;;;-148.53;100.00;63986.66;5069723;28;20363;-78
2023/05/30 08:18:58;;;;;;;;;;;14.60;99.90;;;-148.53;100.00;63986.66;5069492;28;20275;-78
2023/05/30 08:21:24;;;;;;;;;;;14.80;99.90;;;-148.53;100.00;63986.66;5068603;28;20333;-79
2023/05/30 08:23:50;;;;;;;;;;;14.80;99.90;;;-148.53;100.00;63986.66;5059597;28;20015;-80
2023/05/30 08:26:16;;;;;;;;;;;14.50;99.90;;;-148.53;100.00;63986.66;5071166;28;20070;-78
2023/05/30 08:28:42;;;;;;;;;;;14.50;99.90;;;-148.53;100.00;63986.66;5065777;28;19927;-81
2023/05/30 08:31:08;;;;;;;;;;;14.50;99.90;;;-148.53;100.00;63986.66;5061455;28;19924;-79
2023/05/30 08:33:36;;;;;;;;;;;14.50;99.90;;;-148.53;100.00;63986.66;5052616;28;19979;-80
2023/05/30 08:36:01;;;;;;;;;;;14.70;99.90;;;-148.53;100.00;63986.66;5039243;28;19919;-80
2023/05/30 08:38:27;;;;;;;;;;;14.60;99.90;;;-148.53;100.00;63986.66;5055873;28;19916;-81
2023/05/30 08:40:53;;;;;;;;;;;14.50;99.90;;;-148.53;100.00;63986.66;5061476;28;19923;-80
2023/05/30 08:43:19;;;;;;;;;;;14.80;99.90;;;-148.53;100.00;63986.66;5052755;28;19917;-78
2023/05/30 08:45:45;;;;;;;;;;;15.00;99.90;;;-148.53;100.00;63986.66;5058496;28;19925;-79
2023/05/30 08:48:15;;;;;;;;;;;14.90;99.90;;;-148.53;100.00;63986.66;5052597;28;20007;-78
2023/05/30 08:50:42;;;;;;;;;;;14.60;99.90;;;-148.53;100.00;63986.66;5053447;28;19924;-80
2023/05/30 08:53:11;;;;;;;;;;;14.90;99.90;;;-148.53;100.00;63986.66;5053329;28;19942;-81
2023/05/30 08:55:48;;;;;;;;;;;15.20;99.90;;;-148.53;100.00;63986.66;5052545;28;20380;-78
2023/05/30 08:58:20;;;;;;;;;;;15.40;99.90;;;-148.53;100.00;63986.66;5053162;28;19928;-80
2023/05/30 09:00:48;;;;;;;;;;;15.50;99.90;;;-148.53;100.00;63986.66;5053149;28;19916;-81
2023/05/30 09:03:15;;;;;;;;;;;15.40;99.90;;;-148.53;100.00;63986.66;5085323;28;19924;-80
2023/05/30 09:05:42;;;;;;;;;;;15.50;99.90;;;-148.53;100.00;63986.66;5058046;28;19921;-81
2023/05/30 09:08:09;;;;;;;;;;;15.40;99.90;;;-148.53;100.00;63986.66;5053302;28;19929;-83
2023/05/30 09:10:35;;;;;;;;;;;15.70;99.90;;;-148.53;100.00;63986.66;5052999;28;20388;-79
2023/05/30 09:13:01;;;;;;;;;;;16.10;99.90;;;-148.53;100.00;63986.66;5053143;28;19916;-82
2023/05/30 09:15:27;;;;;;;;;;;16.10;99.90;;;-148.53;100.00;63986.66;5052515;28;20283;-79
2023/05/30 09:17:54;;;;;;;;;;;15.70;99.90;;;-148.53;100.00;63986.66;5065840;28;19916;-80
2023/05/30 09:20:22;;;;;;;;;;;15.80;99.90;;;-148.53;100.00;63986.66;5053292;28;19916;-81
2023/05/30 09:22:47;;;;;;;;;;;15.70;99.90;;;-148.53;100.00;63986.66;5052745;28;19962;-81
2023/05/30 09:25:15;;;;;;;;;;;15.80;99.90;;;-148.53;100.00;63986.66;5063836;28;19992;-81
2023/05/30 09:27:46;;;;;;;;;;;15.90;99.90;;;-148.53;100.00;63986.66;5067592;28;20023;-81
2023/05/30 09:30:13;;;;;;;;;;;16.00;99.90;;;-148.53;100.00;63986.66;5064168;28;19916;-81
2023/05/30 09:32:39;;;;;;;;;;;15.90;99.90;;;-148.53;100.00;63986.66;5053862;28;19936;-81
2023/05/30 09:35:07;;;;;;;;;;;15.70;99.90;;;-148.53;100.00;63986.66;5065964;28;20299;-81
2023/05/30 09:37:42;;;;;;;;;;;15.30;99.90;;;-148.53;100.00;63986.66;5052884;28;19920;-82
2023/05/30 09:40:16;;;;;;;;;;;15.80;99.90;;;-148.53;100.00;63986.66;5088397;28;20019;-80
2023/05/30 09:42:53;;;;;;;;;;;16.20;99.90;;;-148.53;100.00;63986.66;5052863;28;19959;-81
2023/05/30 09:45:21;;;;;;;;;;;16.30;99.90;;;-148.53;100.00;63986.66;5051287;28;20675;-82
2023/05/30 09:47:49;;;;;;;;;;;16.30;99.90;;;-148.53;100.00;63986.66;5055068;28;19922;-81
2023/05/30 09:50:23;;;;;;;;;;;16.20;99.90;;;-148.53;100.00;63986.66;5052122;28;19920;-81
2023/05/30 09:52:51;;;;;;;;;;;16.20;99.90;;;-148.53;100.00;63986.66;5063915;28;19916;-81
2023/05/30 09:55:19;;;;;;;;;;;16.40;99.90;;;-148.53;100.00;63986.66;5054964;28;20371;-80
2023/05/30 09:57:51;;;;;;;;;;;16.60;99.90;;;-148.53;100.00;63986.66;5055253;28;20359;-80
2023/05/30 10:00:25;;;;;;;;;;;16.30;99.90;;;-148.53;100.00;63986.66;5055747;28;19916;-80
2023/05/30 10:02:56;;;;;;;;;;;16.20;99.90;;;-148.53;100.00;63986.66;5052434;28;20331;-81
2023/05/30 10:05:27;;;;;;;;;;;16.20;99.90;;;-148.53;100.00;63986.66;5066718;28;19916;-81
2023/05/30 10:07:54;;;;;;;;;;;16.30;99.90;;;-148.53;100.00;63986.66;5059417;28;19924;-80
2023/05/30 10:10:20;;;;;;;;;;;16.30;99.90;;;-148.53;100.00;63986.66;5058287;28;19924;-81
2023/05/30 10:12:51;;;;;;;;;;;16.70;99.90;;;-148.53;100.00;63986.66;5089937;28;20141;-82
2023/05/30 10:15:18;;;;;;;;;;;17.10;99.90;;;-148.53;100.00;63986.66;5062311;28;19916;-80
2023/05/30 10:17:50;;;;;;;;;;;17.30;99.90;;;-148.53;100.00;63986.66;5063862;28;19969;-79
2023/05/30 10:20:18;;;;;;;;;;;17.30;99.90;;;-148.53;100.00;63986.66;5052193;28;20327;-80
2023/05/30 10:22:46;;;;;;;;;;;17.50;99.50;;;-148.53;100.00;63986.66;5056478;28;19936;-80
2023/05/30 10:25:12;;;;;;;;;;;18.90;97.90;;;-148.53;100.00;63986.66;5056253;28;20009;-78
2023/05/30 10:27:42;;;;;;;;;;;18.90;96.90;;;-148.53;100.00;63986.66;5056522;28;19936;-82
2023/05/30 10:30:08;;;;;;;;;;;18.60;96.90;;;-148.53;100.00;63986.66;5056138;28;19923;-81
2023/05/30 10:32:37;;;;;;;;;;;18.60;97.10;;;-148.53;100.00;63986.66;5071150;28;20011;-80
2023/05/30 10:35:11;;;;;;;;;;;19.20;95.90;;;-148.53;100.00;63986.66;5072640;28;19916;-78
2023/05/30 10:37:37;;;;;;;;;;;19.10;95.70;;;-148.53;100.00;63986.66;5069213;28;20356;-81
2023/05/30 10:40:16;;;;;;;;;;;18.60;96.70;;;-148.53;100.00;63986.66;5107821;28;21395;-79
2023/05/30 10:43:10;;;;;;;;;;;18.50;97.60;;;-148.53;100.00;63986.66;5064269;28;19952;-80
2023/05/30 10:46:18;;;;;;;;;;;19.00;96.70;;;-148.53;100.00;63986.66;5056866;28;19920;-79
2023/05/30 10:48:49;;;;;;;;;;;19.50;95.80;;;-148.53;100.00;63986.66;5033152;28;19921;-80
2023/05/30 10:51:16;;;;;;;;;;;18.60;96.30;;;-148.53;100.00;63986.66;5061567;28;19917;-79
2023/05/30 10:53:44;;;;;;;;;;;18.10;98.30;;;-148.53;100.00;63986.66;5065950;28;19927;-80
2023/05/30 10:56:38;;;;;;;;;;;18.70;97.60;;;-148.53;100.00;63986.66;5088585;28;19916;-81
2023/05/30 10:59:12;;;;;;;;;;;19.40;95.40;;;-148.53;100.00;63986.66;5063410;28;20281;-77
2023/05/30 11:01:38;;;;;;;;;;;19.50;94.60;;;-148.53;100.00;63986.66;5069132;28;20050;-79